Time;durP1;ratioP1;P1;durP2;ratioP2;P2;SDS_P1;SDS_P2;PMS_P1;PMS_P2;Temp;Humidity;BMP_temperature;BMP_pressure;BME280_temperature;BME280_humidity;BME280_pressure;Samples;Min_cycle;Max_cycle;Signal;HPM_P1;HPM_P2
2023/09/29 00:01:35;;;;;;;14.82;6.57;;;;;;;14.88;62.36;100604.41;5033200;28;20470;-63
2023/09/29 00:04:04;;;;;;;8.02;6.60;;;;;;;14.90;62.76;100615.91;5032233;28;20116;-63
2023/09/29 00:06:29;;;;;;;10.23;6.57;;;;;;;14.69;62.52;100575.44;5032313;28;20440;-65
2023/09/29 00:08:55;;;;;;;9.93;6.07;;;;;;;14.82;62.72;100596.81;5035593;28;20076;-63
2023/09/29 00:11:20;;;;;;;8.68;6.32;;;;;;;14.86;63.05;100613.59;5036875;28;20033;-63
2023/09/29 00:13:46;;;;;;;11.77;6.88;;;;;;;14.84;63.05;100615.56;5036254;28;20131;-62
2023/09/29 00:16:12;;;;;;;13.13;7.10;;;;;;;14.82;63.21;100613.00;5035284;28;20411;-63
2023/09/29 00:18:37;;;;;;;13.15;6.60;;;;;;;14.81;63.14;100616.69;5035909;28;20036;-61
2023/09/29 00:21:03;;;;;;;8.45;6.60;;;;;;;14.82;62.81;100610.28;5039870;28;20032;-63
2023/09/29 00:23:28;;;;;;;10.35;7.35;;;;;;;14.68;62.96;100589.06;5054102;28;20825;-62
2023/09/29 00:25:55;;;;;;;11.18;6.85;;;;;;;14.77;63.24;100616.09;5055496;28;20469;-63
2023/09/29 00:28:21;;;;;;;11.60;7.30;;;;;;;14.74;63.29;100627.16;5055587;28;20402;-64
2023/09/29 00:30:47;;;;;;;12.35;7.00;;;;;;;14.71;63.44;100622.03;5054133;28;20043;-62
2023/09/29 00:33:12;;;;;;;12.45;6.95;;;;;;;14.69;63.69;100628.50;5038612;28;20356;-64
2023/09/29 00:35:38;;;;;;;13.77;7.25;;;;;;;14.66;63.41;100629.59;5035679;28;20069;-63
2023/09/29 00:38:04;;;;;;;10.98;6.88;;;;;;;14.45;63.71;100590.00;5037604;28;20367;-63
2023/09/29 00:40:30;;;;;;;12.80;6.90;;;;;;;14.59;63.67;100623.91;5055701;28;20875;-62
2023/09/29 00:42:59;;;;;;;13.32;7.80;;;;;;;14.62;63.91;100633.53;5040225;28;20349;-63
2023/09/29 00:45:26;;;;;;;17.60;7.43;;;;;;;14.59;63.86;100629.28;5050499;28;20103;-62
2023/09/29 00:48:13;;;;;;;12.20;7.10;;;;;;;14.63;63.91;100624.47;5054692;28;20129;-63
2023/09/29 00:50:38;;;;;;;;;;;;;;;14.89;62.73;100624.97;5056197;28;20039;-62
2023/09/29 00:53:11;;;;;;;;;;;;;;;14.98;61.58;100623.34;5051189;28;20004;-63
2023/09/29 00:55:37;;;;;;;11.75;7.00;;;;;;;14.67;63.33;100620.53;5035487;28;19931;-63
2023/09/29 00:58:05;;;;;;;9.95;6.72;;;;;;;14.30;63.84;100577.88;5034909;28;20041;-63
2023/09/29 01:00:36;;;;;;;11.88;7.03;;;;;;;14.58;63.72;100621.31;5035307;28;20061;-62
2023/09/29 01:03:06;;;;;;;13.65;7.38;;;;;;;14.53;63.84;100618.16;5042550;28;20447;-63
2023/09/29 01:05:38;;;;;;;14.40;7.25;;;;;;;14.49;64.11;100615.75;5054908;28;20041;-62
2023/09/29 01:08:08;;;;;;;11.98;7.00;;;;;;;14.47;64.16;100619.53;5054600;28;20036;-63
2023/09/29 01:10:34;;;;;;;12.25;6.82;;;;;;;14.43;64.23;100615.41;5054037;28;20044;-62
2023/09/29 01:13:00;;;;;;;10.00;6.65;;;;;;;14.41;64.44;100615.50;5054484;28;20081;-63
2023/09/29 01:15:25;;;;;;;14.82;6.95;;;;;;;14.40;64.72;100619.19;5054160;28;20072;-62
2023/09/29 01:17:51;;;;;;;12.70;7.55;;;;;;;14.30;64.56;100602.09;5052468;28;20029;-62
2023/09/29 01:20:24;;;;;;;13.80;7.20;;;;;;;14.39;64.71;100630.94;5053883;28;20112;-62
2023/09/29 01:22:50;;;;;;;10.48;7.22;;;;;;;14.37;64.75;100622.16;5054518;28;20356;-64
2023/09/29 01:25:20;;;;;;;10.30;7.45;;;;;;;14.29;64.93;100621.94;5052345;28;20025;-62
2023/09/29 01:27:46;;;;;;;9.75;6.85;;;;;;;14.32;65.03;100627.06;5054668;28;20028;-62
2023/09/29 01:30:18;;;;;;;11.23;7.25;;;;;;;14.29;64.99;100632.72;5054607;28;20032;-62
2023/09/29 01:32:49;;;;;;;9.02;7.15;;;;;;;14.27;65.00;100629.31;5054355;28;20112;-62
2023/09/29 01:35:15;;;;;;;9.57;6.72;;;;;;;14.24;65.06;100626.88;5054015;28;20037;-63
2023/09/29 01:37:42;;;;;;;13.52;7.72;;;;;;;14.25;65.31;100625.88;5054596;28;20463;-62
2023/09/29 01:40:09;;;;;;;11.90;6.88;;;;;;;14.23;65.57;100619.75;5048061;28;20025;-63
2023/09/29 01:42:35;;;;;;;11.57;6.90;;;;;;;14.19;65.46;100632.63;5034247;28;20033;-63
2023/09/29 01:45:03;;;;;;;10.07;6.78;;;;;;;14.18;65.54;100626.38;5034244;28;20105;-62
2023/09/29 01:47:30;;;;;;;9.65;6.60;;;;;;;14.18;65.35;100626.38;5052268;28;20052;-63
2023/09/29 01:49:56;;;;;;;11.32;6.95;;;;;;;14.18;65.65;100621.00;5053951;28;20075;-62
2023/09/29 01:52:22;;;;;;;12.02;7.18;;;;;;;14.14;65.76;100616.00;5054068;28;20025;-62
2023/09/29 01:54:49;;;;;;;12.07;6.90;;;;;;;14.15;65.75;100623.94;5053697;28;20047;-62
2023/09/29 01:57:15;;;;;;;11.25;6.60;;;;;;;14.13;65.77;100633.16;5053461;28;20039;-63
2023/09/29 01:59:41;;;;;;;13.40;6.80;;;;;;;14.11;65.73;100625.19;5044391;28;20034;-62
2023/09/29 02:02:06;;;;;;;12.95;7.03;;;;;;;14.08;66.19;100620.06;5033524;28;20048;-62
2023/09/29 02:04:34;;;;;;;10.35;7.00;;;;;;;14.07;66.03;100619.19;5033554;28;20033;-62
2023/09/29 02:07:01;;;;;;;14.43;6.65;;;;;;;14.07;65.88;100623.72;5033295;28;20025;-62
2023/09/29 02:09:27;;;;;;;13.02;6.85;;;;;;;14.05;65.97;100618.47;5033856;28;20143;-62
2023/09/29 02:11:53;;;;;;;9.93;6.88;;;;;;;14.05;66.11;100625.69;5032918;28;20033;-62
2023/09/29 02:14:19;;;;;;;10.45;6.63;;;;;;;14.01;66.39;100614.31;5034466;28;20076;-62
2023/09/29 02:16:56;;;;;;;14.75;7.53;;;;;;;14.03;66.28;100619.59;5033903;28;20029;-63
2023/09/29 02:19:22;;;;;;;10.93;7.00;;;;;;;14.03;66.16;100624.97;5033808;28;20104;-63
2023/09/29 02:21:47;;;;;;;11.45;6.68;;;;;;;14.01;66.16;100617.00;5045688;28;20033;-63
2023/09/29 02:24:33;;;;;;;11.75;6.88;;;;;;;14.03;66.18;100628.50;5052899;28;20144;-64
2023/09/29 02:26:59;;;;;;;8.45;6.72;;;;;;;14.00;66.39;100619.84;5053306;28;20399;-62
2023/09/29 02:29:27;;;;;;;11.52;7.18;;;;;;;13.99;66.14;100623.53;5052403;28;20025;-62
2023/09/29 02:31:55;;;;;;;9.10;6.68;;;;;;;13.98;66.61;100624.47;5052132;28;20040;-63
2023/09/29 02:34:23;;;;;;;10.35;7.20;;;;;;;13.98;66.48;100625.34;5036190;28;20042;-62
2023/09/29 02:36:48;;;;;;;9.85;7.10;;;;;;;13.96;66.58;100618.38;5033420;28;20443;-63
2023/09/29 02:39:14;;;;;;;10.15;7.13;;;;;;;13.95;66.62;100622.03;5033337;28;20034;-63
2023/09/29 02:41:39;;;;;;;13.70;7.15;;;;;;;13.92;66.51;100612.41;5032847;28;20529;-61
2023/09/29 02:44:05;;;;;;;10.55;6.97;;;;;;;13.91;66.68;100618.75;5033990;28;20159;-62
2023/09/29 02:46:32;;;;;;;19.55;7.47;;;;;;;13.91;66.68;100619.59;5033184;28;20347;-62
2023/09/29 02:48:58;;;;;;;14.63;6.88;;;;;;;13.91;66.82;100622.28;5033036;28;20022;-62
2023/09/29 02:51:23;;;;;;;12.88;7.55;;;;;;;13.70;66.96;100594.44;5032793;28;20104;-62
2023/09/29 02:53:50;;;;;;;12.52;7.32;;;;;;;13.82;67.03;100603.34;5032582;28;20440;-63
2023/09/29 02:56:17;;;;;;;13.43;7.20;;;;;;;13.87;67.05;100623.53;5033302;28;20452;-64
2023/09/29 02:58:43;;;;;;;10.40;6.63;;;;;;;13.86;67.00;100624.53;5032890;28;20105;-63
2023/09/29 03:01:12;;;;;;;12.20;7.30;;;;;;;13.87;67.12;100625.38;5048673;28;20074;-62
2023/09/29 03:03:45;;;;;;;16.30;7.70;;;;;;;13.89;67.25;100628.81;5052367;28;20033;-62
2023/09/29 03:06:20;;;;;;;13.20;7.72;;;;;;;13.92;66.96;100625.84;5052993;28;20094;-63
2023/09/29 03:08:54;;;;;;;13.27;7.53;;;;;;;13.84;66.94;100621.09;5052796;28;20025;-62
2023/09/29 03:11:20;;;;;;;13.93;7.50;;;;;;;13.82;67.30;100622.19;5050717;28;20036;-62
2023/09/29 03:13:46;;;;;;;12.43;6.90;;;;;;;13.65;67.13;100597.53;5052285;28;20053;-63
2023/09/29 03:16:12;;;;;;;11.68;7.38;;;;;;;13.80;67.19;100622.34;5051222;28;20124;-63
2023/09/29 03:18:39;;;;;;;15.48;7.85;;;;;;;13.81;67.33;100640.19;5052247;28;20531;-61
2023/09/29 03:21:04;;;;;;;15.38;7.55;;;;;;;13.77;67.51;100622.59;5050555;28;20099;-63
2023/09/29 03:23:34;;;;;;;15.23;7.50;;;;;;;13.83;67.48;100635.53;5052260;28;20128;-64
2023/09/29 03:26:01;;;;;;;11.25;6.90;;;;;;;13.82;67.55;100635.66;5052379;28;20463;-62
2023/09/29 03:28:26;;;;;;;11.50;8.02;;;;;;;13.62;67.38;100592.38;5052068;28;20037;-62
2023/09/29 03:30:52;;;;;;;12.20;7.57;;;;;;;13.77;67.58;100619.91;5052063;28;20037;-63
2023/09/29 03:33:17;;;;;;;11.45;7.35;;;;;;;13.64;67.54;100585.91;5052657;28;20108;-62
2023/09/29 03:35:43;;;;;;;11.32;7.90;;;;;;;13.74;67.17;100603.97;5035714;28;20042;-62
2023/09/29 03:38:09;;;;;;;12.60;8.23;;;;;;;13.91;67.16;100618.75;5032457;28;20030;-62
2023/09/29 03:40:34;;;;;;;13.25;7.72;;;;;;;13.97;67.25;100622.75;5032201;28;20346;-62
2023/09/29 03:43:01;;;;;;;18.80;7.85;;;;;;;14.02;66.77;100616.03;5034712;28;20440;-62
2023/09/29 03:45:27;;;;;;;12.27;7.15;;;;;;;14.06;66.81;100617.47;5036525;28;20048;-62
2023/09/29 03:47:52;;;;;;;11.15;7.38;;;;;;;14.13;66.63;100617.81;5035933;28;20033;-64
2023/09/29 03:50:18;;;;;;;12.73;8.15;;;;;;;14.24;66.71;100616.09;5037395;28;20116;-64
2023/09/29 03:52:46;;;;;;;12.30;7.68;;;;;;;14.32;66.30;100616.31;5035958;28;20063;-63
2023/09/29 03:55:12;;;;;;;22.45;7.90;;;;;;;14.45;65.83;100624.19;5035550;28;20033;-62
2023/09/29 03:57:38;;;;;;;16.83;7.70;;;;;;;14.55;65.77;100622.44;5036996;28;20441;-62
2023/09/29 04:00:11;;;;;;;14.38;8.05;;;;;;;14.69;65.09;100618.56;5052793;28;20040;-63
2023/09/29 04:02:37;;;;;;;15.90;8.13;;;;;;;14.77;64.54;100599.94;5056088;28;20029;-63
2023/09/29 04:05:04;;;;;;;23.48;7.82;;;;;;;14.89;64.33;100602.53;5041170;28;20029;-63
2023/09/29 04:07:29;;;;;;;13.70;7.97;;;;;;;15.06;64.14;100610.03;5035657;28;20041;-62
2023/09/29 04:09:55;;;;;;;16.63;7.97;;;;;;;15.34;63.13;100602.19;5035751;28;20029;-63
2023/09/29 04:12:20;;;;;;;12.75;7.57;;;;;;;16.12;60.89;100599.84;5036124;28;20077;-63
2023/09/29 04:14:46;;;;;;;12.35;7.63;;;;;;;17.17;57.71;100600.88;5035658;28;20213;-63
2023/09/29 04:17:13;;;;;;;12.95;7.53;;;;;;;18.04;54.62;100576.19;5035689;28;20041;-62
2023/09/29 04:19:38;;;;;;;11.80;7.07;;;;;;;19.07;51.83;100593.81;5036603;28;20029;-62
2023/09/29 04:22:04;;;;;;;19.58;8.48;;;;;;;19.85;49.96;100601.06;5044474;28;20086;-63
2023/09/29 04:24:30;;;;;;;14.63;7.65;;;;;;;20.60;47.48;100593.88;5055855;28;20037;-65
2023/09/29 04:26:56;;;;;;;10.88;7.38;;;;;;;21.27;46.10;100595.47;5055398;28;20029;-62
2023/09/29 04:29:22;;;;;;;15.07;7.35;;;;;;;21.86;44.57;100593.38;5055400;28;20324;-63
2023/09/29 04:31:47;;;;;;;16.67;7.53;;;;;;;22.11;43.62;100590.47;5055789;28;20024;-62
2023/09/29 04:34:13;;;;;;;9.20;7.15;;;;;;;22.42;42.94;100592.28;5055200;28;20029;-63
2023/09/29 04:36:40;;;;;;;11.77;7.10;;;;;;;22.98;41.50;100596.56;5053198;28;20031;-62
2023/09/29 04:39:06;;;;;;;17.27;7.40;;;;;;;23.69;40.15;100581.56;5054915;28;20444;-65
2023/09/29 04:41:31;;;;;;;10.50;7.13;;;;;;;24.36;38.94;100591.34;5055496;28;20167;-63
2023/09/29 04:43:57;;;;;;;13.07;6.63;;;;;;;24.98;37.70;100595.47;5055360;28;20029;-63
2023/09/29 04:46:23;;;;;;;12.15;6.60;;;;;;;25.49;36.10;100591.53;5043345;28;20294;-63
2023/09/29 04:48:52;;;;;;;12.27;6.85;;;;;;;26.01;34.97;100589.19;5035307;28;20040;-63
2023/09/29 04:51:18;;;;;;;11.10;6.38;;;;;;;26.57;33.93;100578.91;5036355;28;20367;-62
2023/09/29 04:53:44;;;;;;;12.02;7.18;;;;;;;27.17;32.92;100582.66;5033907;28;20033;-63
2023/09/29 04:56:09;;;;;;;11.77;6.45;;;;;;;27.75;32.15;100592.00;5034177;28;20033;-64
2023/09/29 04:58:34;;;;;;;9.32;6.40;;;;;;;28.26;31.00;100583.91;5034951;28;20037;-63
2023/09/29 05:01:01;;;;;;;12.25;6.95;;;;;;;29.00;29.69;100586.88;5035113;28;20025;-64
2023/09/29 05:03:27;;;;;;;9.80;6.38;;;;;;;29.64;29.09;100586.56;5034606;28;20403;-62
2023/09/29 05:05:52;;;;;;;10.32;6.05;;;;;;;30.27;28.01;100574.44;5035837;28;20025;-63
2023/09/29 05:08:18;;;;;;;7.35;5.97;;;;;;;30.76;27.12;100586.19;5034546;28;20095;-62
2023/09/29 05:10:44;;;;;;;11.52;5.82;;;;;;;31.40;25.88;100583.72;5034378;28;20475;-63
2023/09/29 05:13:10;;;;;;;9.52;5.65;;;;;;;31.97;25.48;100593.16;5034581;28;20053;-63
2023/09/29 05:15:36;;;;;;;8.55;6.05;;;;;;;32.43;24.97;100582.94;5034122;28;20071;-62
2023/09/29 05:18:03;;;;;;;10.32;5.72;;;;;;;32.88;24.04;100599.72;5034488;28;20030;-62
2023/09/29 05:20:28;;;;;;;10.88;6.00;;;;;;;33.39;23.76;100595.97;5034481;28;20068;-62
2023/09/29 05:22:54;;;;;;;8.27;6.22;;;;;;;33.76;22.78;100600.88;5034753;28;20067;-63
2023/09/29 05:25:19;;;;;;;13.00;5.60;;;;;;;34.24;22.34;100598.34;5035108;28;20030;-66
2023/09/29 05:27:45;;;;;;;16.15;6.70;;;;;;;34.40;21.93;100534.53;5034225;28;20570;-63
2023/09/29 05:30:12;;;;;;;8.50;5.70;;;;;;;35.39;20.61;100597.19;5033293;28;20036;-64
2023/09/29 05:32:38;;;;;;;9.68;5.90;;;;;;;35.62;20.12;100591.16;5041043;28;20029;-64
2023/09/29 05:35:04;;;;;;;11.07;5.85;;;;;;;35.83;20.38;100595.97;5053909;28;20355;-62
2023/09/29 05:37:32;;;;;;;11.20;6.30;;;;;;;36.22;19.88;100589.91;5053946;28;20040;-62
2023/09/29 05:40:03;;;;;;;8.02;5.45;;;;;;;36.52;19.08;100585.47;5053713;28;20115;-63
2023/09/29 05:42:30;;;;;;;10.93;5.78;;;;;;;36.87;19.05;100574.53;5054147;28;20091;-64
2023/09/29 05:44:56;;;;;;;11.35;6.05;;;;;;;37.11;18.72;100590.66;5054047;28;20060;-63
2023/09/29 05:47:22;;;;;;;10.85;5.90;;;;;;;37.40;18.32;100598.41;5052113;28;20029;-64
2023/09/29 05:49:47;;;;;;;11.43;6.18;;;;;;;37.72;18.24;100589.56;5053737;28;20032;-62
2023/09/29 05:52:13;;;;;;;11.80;5.88;;;;;;;38.02;17.61;100561.75;5053696;28;20072;-64
2023/09/29 05:54:38;;;;;;;13.57;5.88;;;;;;;38.68;17.00;100589.44;5053750;28;20112;-63
2023/09/29 05:57:04;;;;;;;14.02;5.93;;;;;;;39.25;16.49;100598.06;5040287;28;20057;-62
2023/09/29 05:59:29;;;;;;;10.73;6.60;;;;;;;39.88;16.13;100586.88;5034049;28;20037;-63
2023/09/29 06:01:58;;;;;;;14.73;6.13;;;;;;;40.13;15.71;100591.28;5033582;28;20045;-63
2023/09/29 06:04:23;;;;;;;11.57;6.07;;;;;;;40.34;15.29;100593.78;5032683;28;20037;-63
2023/09/29 06:06:49;;;;;;;13.73;6.10;;;;;;;40.67;15.53;100595.72;5035034;28;20487;-63
2023/09/29 06:09:14;;;;;;;10.38;5.55;;;;;;;41.14;14.76;100598.47;5033912;28;20483;-63
2023/09/29 06:11:40;;;;;;;12.40;6.00;;;;;;;41.45;14.38;100583.78;5033390;28;20071;-62
2023/09/29 06:14:06;;;;;;;14.05;6.18;;;;;;;41.52;14.76;100594.59;5033166;28;20444;-63
2023/09/29 06:16:32;;;;;;;14.50;6.38;;;;;;;41.80;14.28;100589.78;5033716;28;20034;-63
2023/09/29 06:18:57;;;;;;;23.58;6.78;;;;;;;42.20;13.68;100572.25;5039148;28;20363;-63
2023/09/29 06:21:23;;;;;;;11.05;6.15;;;;;;;42.79;13.24;100585.31;5051571;28;20029;-62
2023/09/29 06:23:48;;;;;;;15.07;6.75;;;;;;;43.27;13.42;100589.34;5052818;28;20132;-62
2023/09/29 06:26:14;;;;;;;12.05;6.00;;;;;;;43.55;13.17;100588.25;5052767;28;20025;-63
2023/09/29 06:28:39;;;;;;;18.83;6.80;;;;;;;43.75;12.77;100578.34;5053183;28;20043;-62
2023/09/29 06:31:06;;;;;;;17.88;6.95;;;;;;;43.98;12.49;100589.44;5052441;28;20029;-63
2023/09/29 06:33:32;;;;;;;15.40;6.75;;;;;;;44.15;12.10;100578.19;5039097;28;20026;-62
2023/09/29 06:35:57;;;;;;;17.52;6.88;;;;;;;44.15;12.17;100585.78;5050757;28;20036;-62
2023/09/29 06:38:23;;;;;;;20.38;7.18;;;;;;;44.02;12.64;100579.16;5051695;28;20029;-61
2023/09/29 06:40:49;;;;;;;15.80;7.13;;;;;;;44.17;12.21;100581.50;5050860;28;20024;-61
2023/09/29 06:43:16;;;;;;;13.43;6.95;;;;;;;44.45;12.14;100575.44;5047925;28;20410;-63
2023/09/29 06:45:41;;;;;;;15.57;6.85;;;;;;;44.67;12.02;100559.44;5030973;28;20514;-61
2023/09/29 06:48:07;;;;;;;13.10;6.30;;;;;;;45.18;11.78;100567.19;5031372;28;20029;-61
2023/09/29 06:50:33;;;;;;;15.23;6.65;;;;;;;45.49;11.49;100582.97;5031197;28;20051;-62
2023/09/29 06:52:59;;;;;;;17.20;6.65;;;;;;;45.88;11.09;100577.16;5031851;28;20083;-63
2023/09/29 06:55:24;;;;;;;14.98;6.65;;;;;;;46.12;10.87;100570.81;5032204;28;20466;-63
2023/09/29 06:57:50;;;;;;;21.23;6.57;;;;;;;46.49;10.79;100572.06;5033781;28;20096;-63
2023/09/29 07:00:16;;;;;;;20.45;7.32;;;;;;;46.63;10.67;100575.44;5032434;28;20171;-61
2023/09/29 07:02:41;;;;;;;22.52;7.57;;;;;;;46.72;10.76;100570.47;5032571;28;20120;-62
2023/09/29 07:05:07;;;;;;;20.23;7.50;;;;;;;46.85;10.39;100567.66;5032270;28;20191;-62
2023/09/29 07:07:33;;;;;;;10.88;6.75;;;;;;;46.82;10.30;100568.38;5033463;28;20030;-62
2023/09/29 07:09:59;;;;;;;13.82;6.82;;;;;;;47.07;10.28;100562.72;5032584;28;20462;-63
2023/09/29 07:12:25;;;;;;;14.35;6.47;;;;;;;47.15;10.50;100573.09;5031288;28;20052;-62
2023/09/29 07:14:51;;;;;;;16.00;6.85;;;;;;;47.27;9.99;100560.94;5032312;28;20049;-62
2023/09/29 07:17:17;;;;;;;14.20;6.32;;;;;;;47.13;10.09;100572.63;5031930;28;20025;-62
2023/09/29 07:19:43;;;;;;;16.60;6.22;;;;;;;47.04;10.14;100571.94;5031879;28;20087;-62
2023/09/29 07:22:09;;;;;;;18.48;7.05;;;;;;;46.75;10.40;100570.94;5033145;28;20052;-62
2023/09/29 07:24:34;;;;;;;13.90;6.45;;;;;;;46.53;10.39;100567.38;5032018;28;20037;-62
2023/09/29 07:27:00;;;;;;;21.70;6.68;;;;;;;46.41;10.75;100565.31;5032404;28;20032;-62
2023/09/29 07:29:26;;;;;;;12.63;6.00;;;;;;;46.17;10.74;100566.13;5032309;28;20049;-63
2023/09/29 07:31:51;;;;;;;15.20;5.50;;;;;;;45.85;10.86;100567.41;5033188;28;20108;-62
2023/09/29 07:34:17;;;;;;;14.40;6.28;;;;;;;45.55;11.37;100564.59;5032077;28;20037;-62
2023/09/29 07:36:44;;;;;;;18.23;6.93;;;;;;;45.16;11.42;100563.88;5032237;28;20053;-62
2023/09/29 07:39:14;;;;;;;16.85;6.88;;;;;;;44.68;11.62;100565.91;5032001;28;20041;-62
2023/09/29 07:41:40;;;;;;;12.25;6.35;;;;;;;44.01;12.47;100554.91;5029799;28;20087;-61
2023/09/29 07:44:07;;;;;;;14.48;5.85;;;;;;;42.50;13.19;100566.97;5049440;28;20036;-62
2023/09/29 07:46:33;;;;;;;17.95;6.65;;;;;;;40.32;15.17;100562.38;5051344;28;20055;-62
2023/09/29 07:48:58;;;;;;;14.90;6.63;;;;;;;37.97;17.25;100559.00;5051497;28;20044;-61
2023/09/29 07:51:25;;;;;;;12.05;6.70;;;;;;;35.84;19.30;100536.38;5045878;28;20018;-63
2023/09/29 07:53:51;;;;;;;13.45;6.38;;;;;;;34.16;21.47;100569.09;5037032;28;20047;-63
2023/09/29 07:56:16;;;;;;;12.85;6.78;;;;;;;32.67;23.26;100566.13;5031833;28;20059;-64
2023/09/29 07:58:42;;;;;;;24.13;7.50;;;;;;;31.45;25.00;100565.28;5031225;28;20045;-61
2023/09/29 08:01:08;;;;;;;17.90;6.82;;;;;;;30.46;26.40;100564.13;5031752;28;20041;-61
2023/09/29 08:03:34;;;;;;;19.80;7.10;;;;;;;29.71;27.94;100566.31;5032123;28;20083;-65
2023/09/29 08:05:59;;;;;;;31.98;7.65;;;;;;;29.19;29.09;100567.59;5033082;28;20037;-62
2023/09/29 08:08:25;;;;;;;20.52;7.07;;;;;;;28.70;29.54;100560.00;5032526;28;20068;-61
2023/09/29 08:10:52;;;;;;;22.65;7.85;;;;;;;28.31;30.38;100560.09;5031637;28;20121;-62
2023/09/29 08:13:18;;;;;;;19.30;7.60;;;;;;;27.87;31.05;100551.72;5044362;28;20120;-61
2023/09/29 08:15:45;;;;;;;21.30;8.32;;;;;;;27.67;31.88;100561.97;5046126;28;20116;-61
2023/09/29 08:18:10;;;;;;;19.02;8.13;;;;;;;27.45;32.28;100537.50;5038102;28;20371;-62
2023/09/29 08:20:37;;;;;;;16.42;8.20;;;;;;;27.32;32.16;100539.28;5050962;28;20127;-60
2023/09/29 08:23:02;;;;;;;22.15;9.32;;;;;;;27.24;32.76;100556.00;5052067;28;20134;-62
2023/09/29 08:25:29;;;;;;;21.33;8.70;;;;;;;27.16;33.52;100556.25;5051027;28;20032;-63
2023/09/29 08:27:56;;;;;;;20.27;8.90;;;;;;;27.03;33.76;100546.13;5051741;28;20105;-62
2023/09/29 08:30:22;;;;;;;18.65;9.07;;;;;;;26.89;33.85;100545.31;5053286;28;20112;-63
2023/09/29 08:32:47;;;;;;;16.80;8.55;;;;;;;26.74;34.57;100542.78;5035293;28;20128;-57
2023/09/29 08:35:13;;;;;;;16.52;8.35;;;;;;;26.61;34.89;100538.16;5034219;28;20033;-58
2023/09/29 08:37:41;;;;;;;24.70;8.60;;;;;;;26.61;34.73;100543.66;5034582;28;20037;-57
2023/09/29 08:40:09;;;;;;;19.40;8.13;;;;;;;26.58;35.48;100538.59;5034664;28;20436;-58
2023/09/29 08:42:36;;;;;;;16.92;8.70;;;;;;;26.68;35.95;100538.97;5039861;28;20477;-58
2023/09/29 08:45:11;;;;;;;22.95;8.65;;;;;;;26.76;35.22;100536.00;5054084;28;20029;-57
2023/09/29 08:47:38;;;;;;;18.65;8.77;;;;;;;26.44;35.81;100496.56;5034591;28;20041;-59
2023/09/29 08:50:05;;;;;;;18.40;8.35;;;;;;;26.50;36.18;100521.25;5035086;28;20029;-59
2023/09/29 08:52:32;;;;;;;20.60;8.50;;;;;;;26.44;36.41;100526.78;5038822;28;20021;-60
2023/09/29 08:54:59;;;;;;;15.82;8.20;;;;;;;26.35;36.95;100521.47;5050728;28;20087;-59
2023/09/29 08:57:25;;;;;;;26.13;9.00;;;;;;;26.34;36.96;100516.22;5053958;28;20131;-59
2023/09/29 08:59:53;;;;;;;18.05;8.40;;;;;;;26.33;37.03;100514.53;5054242;28;20059;-59
2023/09/29 09:02:19;;;;;;;25.08;9.43;;;;;;;26.34;36.95;100524.44;5036475;28;20033;-59
2023/09/29 09:04:45;;;;;;;15.65;8.90;;;;;;;26.36;36.58;100514.94;5033337;28;20351;-56
2023/09/29 09:07:11;;;;;;;18.88;8.63;;;;;;;26.30;37.00;100507.56;5034023;28;20037;-56
2023/09/29 09:09:37;;;;;;;21.80;9.27;;;;;;;26.33;37.05;100517.28;5036418;28;20049;-57
2023/09/29 09:12:04;;;;;;;20.95;9.07;;;;;;;26.27;36.81;100505.22;5035237;28;20036;-60
2023/09/29 09:14:43;;;;;;;21.58;8.88;;;;;;;26.43;36.58;100519.59;5051572;28;20029;-59
2023/09/29 09:17:10;;;;;;;22.77;9.32;;;;;;;26.26;36.62;100514.53;5054522;28;20344;-63
2023/09/29 09:19:43;;;;;;;17.52;9.25;;;;;;;26.23;36.66;100514.94;5054084;28;20029;-62
2023/09/29 09:22:14;;;;;;;19.33;8.73;;;;;;;25.93;37.17;100477.75;5053838;28;20121;-61
2023/09/29 09:24:40;;;;;;;14.05;8.40;;;;;;;26.03;37.14;100499.28;5052164;28;20152;-62
2023/09/29 09:27:05;;;;;;;19.25;8.63;;;;;;;26.02;37.31;100496.72;5052971;28;20093;-63
2023/09/29 09:29:39;;;;;;;22.27;9.18;;;;;;;26.03;37.41;100503.91;5051996;28;20552;-62
2023/09/29 09:32:06;;;;;;;17.13;9.50;;;;;;;25.82;38.05;100503.06;5036553;28;20454;-61
2023/09/29 09:34:32;;;;;;;20.02;9.30;;;;;;;25.69;38.17;100492.91;5037467;28;20026;-61
2023/09/29 09:36:58;;;;;;;16.70;9.10;;;;;;;25.75;37.88;100500.31;5038603;28;20029;-61
2023/09/29 09:39:24;;;;;;;19.05;8.25;;;;;;;25.73;37.99;100499.66;5036171;28;20041;-62
2023/09/29 09:41:54;;;;;;;18.92;8.68;;;;;;;25.63;38.25;100505.56;5036950;28;20436;-60
2023/09/29 09:44:21;;;;;;;16.58;7.93;;;;;;;25.49;38.51;100507.41;5050069;28;20037;-62
2023/09/29 09:47:04;;;;;;;17.35;8.55;;;;;;;25.52;38.45;100495.19;5040907;28;20064;-61
2023/09/29 09:49:44;;;;;;;15.48;7.70;;;;;;;25.45;38.42;100488.81;5051910;28;20075;-59
2023/09/29 09:52:15;;;;;;;15.68;7.88;;;;;;;25.29;38.42;100482.63;5039420;28;20460;-60
2023/09/29 09:54:48;;;;;;;14.23;7.35;;;;;;;25.40;38.50;100503.13;5037608;28;20116;-62
2023/09/29 09:57:20;;;;;;;15.77;7.80;;;;;;;25.27;38.67;100500.34;5035123;28;20022;-62
2023/09/29 09:59:46;;;;;;;15.80;8.18;;;;;;;25.17;38.98;100489.75;5035347;28;20048;-61
2023/09/29 10:02:12;;;;;;;13.68;8.07;;;;;;;25.17;39.10;100481.53;5035059;28;20029;-60
2023/09/29 10:04:39;;;;;;;14.57;7.97;;;;;;;25.17;38.89;100482.38;5048030;28;20075;-59
2023/09/29 10:07:06;;;;;;;14.38;7.55;;;;;;;25.19;38.76;100480.28;5034059;28;20034;-61
2023/09/29 10:09:43;;;;;;;15.18;7.28;;;;;;;25.15;38.67;100459.81;5036475;28;20116;-61
2023/09/29 10:12:09;;;;;;;14.00;7.22;;;;;;;25.13;39.57;100477.53;5031757;28;20045;-58
2023/09/29 10:14:44;;;;;;;14.40;7.35;;;;;;;25.23;38.69;100472.50;5045033;28;20452;-62
2023/09/29 10:17:12;;;;;;;14.03;7.93;;;;;;;25.23;38.30;100464.28;5051705;28;20061;-59
2023/09/29 10:19:38;;;;;;;12.57;6.97;;;;;;;25.26;38.68;100463.03;5051405;28;20256;-60
2023/09/29 10:22:07;;;;;;;12.43;6.32;;;;;;;25.30;38.38;100459.66;5049707;28;20040;-61
2023/09/29 10:24:33;;;;;;;12.50;6.88;;;;;;;25.35;37.85;100459.03;5051028;28;20025;-59
2023/09/29 10:27:03;;;;;;;13.50;6.00;;;;;;;25.32;37.95;100454.84;5052304;28;20025;-61
2023/09/29 10:29:30;;;;;;;12.85;6.72;;;;;;;25.39;37.87;100464.97;5052999;28;20043;-61
2023/09/29 10:32:15;;;;;;;12.18;6.07;;;;;;;25.42;37.29;100443.44;5052754;28;20033;-62
2023/09/29 10:34:41;;;;;;;12.65;6.13;;;;;;;25.33;37.01;100452.94;5052479;28;20443;-61
2023/09/29 10:37:09;;;;;;;11.90;6.32;;;;;;;25.37;37.24;100446.84;5053437;28;20531;-62
2023/09/29 10:39:36;;;;;;;10.68;6.05;;;;;;;25.41;37.22;100446.41;5053416;28;20040;-62
2023/09/29 10:42:12;;;;;;;13.80;6.38;;;;;;;25.48;37.16;100458.25;5052466;28;20120;-61
2023/09/29 10:44:47;;;;;;;11.82;5.90;;;;;;;25.62;36.94;100453.66;5052707;28;20052;-61
2023/09/29 10:47:14;;;;;;;13.02;5.75;;;;;;;25.62;36.56;100445.44;5053109;28;20073;-61
2023/09/29 10:49:45;;;;;;;11.10;6.15;;;;;;;25.67;36.43;100440.16;5052791;28;20135;-62
2023/09/29 10:52:19;;;;;;;11.90;5.50;;;;;;;25.78;36.38;100435.94;5051208;28;20029;-62
2023/09/29 10:54:45;;;;;;;14.55;6.10;;;;;;;25.50;36.12;100393.09;5052001;28;20368;-64
2023/09/29 10:57:10;;;;;;;14.57;6.05;;;;;;;25.70;36.35;100423.31;5050956;28;20047;-61
2023/09/29 10:59:46;;;;;;;13.57;5.95;;;;;;;25.60;37.00;100401.78;5040976;28;20032;-61
2023/09/29 11:02:12;;;;;;;16.50;6.15;;;;;;;25.59;36.72;100416.53;5051201;28;20037;-61
2023/09/29 11:04:38;;;;;;;12.25;5.78;;;;;;;25.67;36.05;100422.88;5052129;28;20090;-62
2023/09/29 11:07:03;;;;;;;13.18;5.82;;;;;;;25.62;35.83;100418.88;5051856;28;20025;-63
2023/09/29 11:09:31;;;;;;;10.98;6.18;;;;;;;25.57;35.89;100421.41;5051462;28;20029;-60
2023/09/29 11:11:58;;;;;;;13.90;5.63;;;;;;;25.46;36.20;100421.97;5049207;28;20364;-61
2023/09/29 11:14:36;;;;;;;10.98;5.43;;;;;;;25.26;36.32;100378.91;5037909;28;20119;-62
2023/09/29 11:17:02;;;;;;;17.35;5.70;;;;;;;25.30;36.27;100407.59;5050538;28;20021;-63
2023/09/29 11:19:30;;;;;;;13.05;5.80;;;;;;;25.26;36.42;100411.78;5052255;28;20025;-63